sensor_id;sensor_type;location;lat;lon;timestamp;P1;durP1;ratioP1;P2;durP2;ratioP2
17197;SDS011;8715;51.010;6.812;2022-08-11T00:02:26;557.60;;;534.70;;
17197;SDS011;8715;51.010;6.812;2022-08-11T00:05:00;556.72;;;533.80;;
17197;SDS011;8715;51.010;6.812;2022-08-11T00:07:29;558.10;;;535.38;;
17197;SDS011;8715;51.010;6.812;2022-08-11T00:09:55;536.30;;;514.25;;
17197;SDS011;8715;51.010;6.812;2022-08-11T00:12:20;552.03;;;529.05;;
17197;SDS011;8715;51.010;6.812;2022-08-11T00:14:46;551.30;;;529.13;;
17197;SDS011;8715;51.010;6.812;2022-08-11T00:17:20;537.05;;;514.75;;
17197;SDS011;8715;51.010;6.812;2022-08-11T00:19:51;549.15;;;526.70;;
17197;SDS011;8715;51.010;6.812;2022-08-11T00:22:25;546.75;;;524.40;;
17197;SDS011;8715;51.010;6.812;2022-08-11T00:24:52;555.28;;;532.20;;
17197;SDS011;8715;51.010;6.812;2022-08-11T00:27:17;536.38;;;514.38;;
17197;SDS011;8715;51.010;6.812;2022-08-11T00:29:52;530.57;;;508.73;;
17197;SDS011;8715;51.010;6.812;2022-08-11T00:32:18;537.33;;;515.10;;
17197;SDS011;8715;51.010;6.812;2022-08-11T00:34:43;557.90;;;535.03;;
17197;SDS011;8715;51.010;6.812;2022-08-11T00:37:10;521.75;;;500.48;;
17197;SDS011;8715;51.010;6.812;2022-08-11T00:39:44;528.40;;;507.40;;
17197;SDS011;8715;51.010;6.812;2022-08-11T00:42:21;539.17;;;515.03;;
17197;SDS011;8715;51.010;6.812;2022-08-11T00:50:13;548.47;;;525.92;;
17197;SDS011;8715;51.010;6.812;2022-08-11T00:58:28;515.83;;;494.88;;
17197;SDS011;8715;51.010;6.812;2022-08-11T01:03:53;492.00;;;472.52;;
17197;SDS011;8715;51.010;6.812;2022-08-11T01:12:38;509.77;;;486.25;;
17197;SDS011;8715;51.010;6.812;2022-08-11T01:25:53;485.17;;;465.23;;
17197;SDS011;8715;51.010;6.812;2022-08-11T01:31:45;496.55;;;476.42;;
17197;SDS011;8715;51.010;6.812;2022-08-11T01:39:44;489.05;;;469.33;;
17197;SDS011;8715;51.010;6.812;2022-08-11T01:50:40;475.33;;;455.33;;
17197;SDS011;8715;51.010;6.812;2022-08-11T01:53:20;490.83;;;470.88;;
17197;SDS011;8715;51.010;6.812;2022-08-11T02:13:13;482.02;;;462.83;;
17197;SDS011;8715;51.010;6.812;2022-08-11T02:15:44;478.88;;;459.63;;
17197;SDS011;8715;51.010;6.812;2022-08-11T02:18:20;475.27;;;455.98;;
17197;SDS011;8715;51.010;6.812;2022-08-11T02:20:50;478.63;;;458.70;;
17197;SDS011;8715;51.010;6.812;2022-08-11T02:23:53;480.75;;;461.50;;
17197;SDS011;8715;51.010;6.812;2022-08-11T02:26:24;494.38;;;474.23;;
17197;SDS011;8715;51.010;6.812;2022-08-11T02:31:45;466.77;;;447.38;;
17197;SDS011;8715;51.010;6.812;2022-08-11T02:50:29;475.73;;;455.70;;
17197;SDS011;8715;51.010;6.812;2022-08-11T02:53:05;459.63;;;440.65;;
17197;SDS011;8715;51.010;6.812;2022-08-11T02:55:57;475.75;;;456.40;;
17197;SDS011;8715;51.010;6.812;2022-08-11T03:04:12;481.60;;;462.25;;
17197;SDS011;8715;51.010;6.812;2022-08-11T03:06:49;469.30;;;450.08;;
17197;SDS011;8715;51.010;6.812;2022-08-11T03:09:24;463.83;;;444.65;;
17197;SDS011;8715;51.010;6.812;2022-08-11T03:12:07;444.77;;;426.60;;
17197;SDS011;8715;51.010;6.812;2022-08-11T03:14:55;453.42;;;435.00;;
17197;SDS011;8715;51.010;6.812;2022-08-11T03:18:03;452.55;;;433.67;;
17197;SDS011;8715;51.010;6.812;2022-08-11T03:42:28;448.25;;;429.25;;
17197;SDS011;8715;51.010;6.812;2022-08-11T03:51:17;438.98;;;420.98;;
17197;SDS011;8715;51.010;6.812;2022-08-11T04:10:35;440.90;;;422.70;;
17197;SDS011;8715;51.010;6.812;2022-08-11T04:15:58;450.55;;;431.70;;
17197;SDS011;8715;51.010;6.812;2022-08-11T04:21:35;435.85;;;417.52;;
17197;SDS011;8715;51.010;6.812;2022-08-11T04:24:20;433.33;;;414.92;;
17197;SDS011;8715;51.010;6.812;2022-08-11T04:27:08;428.63;;;410.73;;
17197;SDS011;8715;51.010;6.812;2022-08-11T04:44:48;491.63;;;471.40;;
17197;SDS011;8715;51.010;6.812;2022-08-11T04:50:34;528.40;;;506.80;;
17197;SDS011;8715;51.010;6.812;2022-08-11T04:56:40;568.83;;;545.25;;
17197;SDS011;8715;51.010;6.812;2022-08-11T05:02:30;576.80;;;553.08;;
17197;SDS011;8715;51.010;6.812;2022-08-11T05:05:20;584.47;;;560.42;;
17197;SDS011;8715;51.010;6.812;2022-08-11T05:11:06;614.15;;;588.67;;
17197;SDS011;8715;51.010;6.812;2022-08-11T05:13:44;617.33;;;591.53;;
17197;SDS011;8715;51.010;6.812;2022-08-11T05:16:31;640.83;;;613.45;;
17197;SDS011;8715;51.010;6.812;2022-08-11T05:19:18;641.90;;;614.10;;
17197;SDS011;8715;51.010;6.812;2022-08-11T05:22:05;632.15;;;605.17;;
17197;SDS011;8715;51.010;6.812;2022-08-11T05:25:00;640.70;;;613.03;;
17197;SDS011;8715;51.010;6.812;2022-08-11T05:28:12;657.53;;;628.78;;
17197;SDS011;8715;51.010;6.812;2022-08-11T05:31:03;661.58;;;632.17;;
17197;SDS011;8715;51.010;6.812;2022-08-11T05:33:57;649.90;;;621.13;;
17197;SDS011;8715;51.010;6.812;2022-08-11T05:36:50;656.95;;;627.95;;
17197;SDS011;8715;51.010;6.812;2022-08-11T05:39:21;654.72;;;625.80;;
17197;SDS011;8715;51.010;6.812;2022-08-11T05:42:07;664.67;;;635.15;;
17197;SDS011;8715;51.010;6.812;2022-08-11T05:44:52;661.63;;;632.55;;
17197;SDS011;8715;51.010;6.812;2022-08-11T05:47:38;670.20;;;639.80;;
17197;SDS011;8715;51.010;6.812;2022-08-11T05:50:24;662.85;;;632.90;;
17197;SDS011;8715;51.010;6.812;2022-08-11T05:53:09;682.75;;;651.65;;
17197;SDS011;8715;51.010;6.812;2022-08-11T05:55:55;677.45;;;645.88;;
17197;SDS011;8715;51.010;6.812;2022-08-11T05:58:41;686.53;;;655.30;;
17197;SDS011;8715;51.010;6.812;2022-08-11T06:01:30;679.35;;;648.63;;
17197;SDS011;8715;51.010;6.812;2022-08-11T06:03:55;676.80;;;645.78;;
17197;SDS011;8715;51.010;6.812;2022-08-11T06:06:55;671.38;;;640.70;;
17197;SDS011;8715;51.010;6.812;2022-08-11T06:09:23;667.85;;;637.08;;
17197;SDS011;8715;51.010;6.812;2022-08-11T06:11:50;681.83;;;650.33;;
17197;SDS011;8715;51.010;6.812;2022-08-11T06:14:16;682.97;;;651.63;;
17197;SDS011;8715;51.010;6.812;2022-08-11T06:16:42;683.60;;;651.85;;
17197;SDS011;8715;51.010;6.812;2022-08-11T06:19:12;692.65;;;660.40;;
17197;SDS011;8715;51.010;6.812;2022-08-11T06:21:42;688.97;;;656.47;;
17197;SDS011;8715;51.010;6.812;2022-08-11T06:24:12;686.38;;;654.20;;
17197;SDS011;8715;51.010;6.812;2022-08-11T06:26:39;684.97;;;652.88;;
17197;SDS011;8715;51.010;6.812;2022-08-11T06:29:05;684.40;;;652.63;;
17197;SDS011;8715;51.010;6.812;2022-08-11T06:31:31;679.97;;;648.58;;
17197;SDS011;8715;51.010;6.812;2022-08-11T06:34:23;683.92;;;651.65;;
17197;SDS011;8715;51.010;6.812;2022-08-11T06:37:13;675.17;;;643.53;;
17197;SDS011;8715;51.010;6.812;2022-08-11T06:45:15;674.88;;;644.28;;
17197;SDS011;8715;51.010;6.812;2022-08-11T06:47:45;667.03;;;637.22;;
17197;SDS011;8715;51.010;6.812;2022-08-11T06:50:15;662.45;;;632.35;;
17197;SDS011;8715;51.010;6.812;2022-08-11T06:53:00;662.22;;;632.55;;
17197;SDS011;8715;51.010;6.812;2022-08-11T06:55:27;651.22;;;622.30;;
17197;SDS011;8715;51.010;6.812;2022-08-11T06:58:13;638.85;;;610.17;;
17197;SDS011;8715;51.010;6.812;2022-08-11T07:00:59;667.30;;;637.40;;
17197;SDS011;8715;51.010;6.812;2022-08-11T07:06:47;645.38;;;616.67;;
17197;SDS011;8715;51.010;6.812;2022-08-11T07:14:46;635.22;;;607.28;;
17197;SDS011;8715;51.010;6.812;2022-08-11T07:17:34;646.35;;;617.47;;
17197;SDS011;8715;51.010;6.812;2022-08-11T07:20:04;638.55;;;610.65;;
17197;SDS011;8715;51.010;6.812;2022-08-11T07:23:00;642.22;;;613.85;;
17197;SDS011;8715;51.010;6.812;2022-08-11T07:25:47;639.45;;;611.70;;
17197;SDS011;8715;51.010;6.812;2022-08-11T07:28:34;638.03;;;609.60;;
17197;SDS011;8715;51.010;6.812;2022-08-11T07:31:36;646.08;;;617.72;;
17197;SDS011;8715;51.010;6.812;2022-08-11T07:34:10;639.08;;;610.95;;
17197;SDS011;8715;51.010;6.812;2022-08-11T07:36:37;633.63;;;606.53;;
17197;SDS011;8715;51.010;6.812;2022-08-11T07:39:04;632.05;;;604.58;;
17197;SDS011;8715;51.010;6.812;2022-08-11T07:41:32;627.53;;;600.63;;
17197;SDS011;8715;51.010;6.812;2022-08-11T07:43:58;634.78;;;607.08;;
17197;SDS011;8715;51.010;6.812;2022-08-11T07:49:22;636.85;;;609.00;;
17197;SDS011;8715;51.010;6.812;2022-08-11T07:52:06;640.67;;;613.13;;
17197;SDS011;8715;51.010;6.812;2022-08-11T07:54:50;630.45;;;603.35;;
17197;SDS011;8715;51.010;6.812;2022-08-11T07:57:16;629.28;;;602.50;;
17197;SDS011;8715;51.010;6.812;2022-08-11T07:59:59;642.25;;;614.08;;
17197;SDS011;8715;51.010;6.812;2022-08-11T08:02:44;632.53;;;604.13;;
17197;SDS011;8715;51.010;6.812;2022-08-11T08:05:28;638.33;;;611.15;;
17197;SDS011;8715;51.010;6.812;2022-08-11T08:08:13;642.47;;;614.63;;
17197;SDS011;8715;51.010;6.812;2022-08-11T08:10:58;642.47;;;614.40;;
17197;SDS011;8715;51.010;6.812;2022-08-11T08:13:42;644.15;;;616.30;;
17197;SDS011;8715;51.010;6.812;2022-08-11T08:16:26;644.33;;;615.83;;
17197;SDS011;8715;51.010;6.812;2022-08-11T08:19:12;644.80;;;616.83;;
17197;SDS011;8715;51.010;6.812;2022-08-11T08:21:39;652.53;;;623.90;;
17197;SDS011;8715;51.010;6.812;2022-08-11T08:24:05;647.55;;;619.15;;
17197;SDS011;8715;51.010;6.812;2022-08-11T08:26:30;649.00;;;620.53;;
17197;SDS011;8715;51.010;6.812;2022-08-11T08:29:16;653.90;;;625.47;;
17197;SDS011;8715;51.010;6.812;2022-08-11T08:32:00;654.78;;;625.95;;
17197;SDS011;8715;51.010;6.812;2022-08-11T08:34:26;651.67;;;622.70;;
17197;SDS011;8715;51.010;6.812;2022-08-11T08:36:52;659.60;;;630.08;;
17197;SDS011;8715;51.010;6.812;2022-08-11T08:39:20;648.83;;;620.35;;
17197;SDS011;8715;51.010;6.812;2022-08-11T08:41:51;644.15;;;615.50;;
17197;SDS011;8715;51.010;6.812;2022-08-11T08:44:19;647.63;;;619.28;;
17197;SDS011;8715;51.010;6.812;2022-08-11T08:46:48;659.42;;;630.35;;
17197;SDS011;8715;51.010;6.812;2022-08-11T08:49:17;651.50;;;623.30;;
17197;SDS011;8715;51.010;6.812;2022-08-11T08:51:44;649.78;;;621.33;;
17197;SDS011;8715;51.010;6.812;2022-08-11T08:54:11;645.50;;;616.92;;
17197;SDS011;8715;51.010;6.812;2022-08-11T08:56:40;655.75;;;626.72;;
17197;SDS011;8715;51.010;6.812;2022-08-11T08:59:08;653.00;;;624.15;;
17197;SDS011;8715;51.010;6.812;2022-08-11T09:01:36;638.17;;;609.50;;
17197;SDS011;8715;51.010;6.812;2022-08-11T09:04:06;652.30;;;622.70;;
17197;SDS011;8715;51.010;6.812;2022-08-11T09:06:33;667.30;;;637.40;;
17197;SDS011;8715;51.010;6.812;2022-08-11T09:08:59;657.85;;;628.40;;
17197;SDS011;8715;51.010;6.812;2022-08-11T09:11:25;661.63;;;632.20;;
17197;SDS011;8715;51.010;6.812;2022-08-11T09:14:09;661.65;;;632.05;;
17197;SDS011;8715;51.010;6.812;2022-08-11T09:16:35;656.90;;;627.80;;
17197;SDS011;8715;51.010;6.812;2022-08-11T09:19:01;671.80;;;641.40;;
17197;SDS011;8715;51.010;6.812;2022-08-11T09:21:27;669.85;;;639.97;;
17197;SDS011;8715;51.010;6.812;2022-08-11T09:23:52;653.88;;;625.03;;
17197;SDS011;8715;51.010;6.812;2022-08-11T09:26:36;659.45;;;629.83;;
17197;SDS011;8715;51.010;6.812;2022-08-11T09:29:21;669.08;;;639.47;;
17197;SDS011;8715;51.010;6.812;2022-08-11T09:31:47;663.40;;;633.47;;
17197;SDS011;8715;51.010;6.812;2022-08-11T09:34:12;664.30;;;634.63;;
17197;SDS011;8715;51.010;6.812;2022-08-11T09:36:42;651.50;;;622.30;;
17197;SDS011;8715;51.010;6.812;2022-08-11T09:39:29;665.72;;;635.20;;
17197;SDS011;8715;51.010;6.812;2022-08-11T09:42:14;650.58;;;621.20;;
17197;SDS011;8715;51.010;6.812;2022-08-11T09:44:40;658.58;;;628.95;;
17197;SDS011;8715;51.010;6.812;2022-08-11T09:47:17;653.95;;;624.45;;
17197;SDS011;8715;51.010;6.812;2022-08-11T09:49:44;663.00;;;633.35;;
17197;SDS011;8715;51.010;6.812;2022-08-11T09:52:11;658.45;;;628.78;;
17197;SDS011;8715;51.010;6.812;2022-08-11T09:54:39;656.38;;;626.40;;
17197;SDS011;8715;51.010;6.812;2022-08-11T09:57:05;669.13;;;639.00;;
17197;SDS011;8715;51.010;6.812;2022-08-11T09:59:50;660.05;;;630.58;;
17197;SDS011;8715;51.010;6.812;2022-08-11T10:02:16;666.60;;;636.72;;
17197;SDS011;8715;51.010;6.812;2022-08-11T10:04:54;664.30;;;634.70;;
17197;SDS011;8715;51.010;6.812;2022-08-11T10:07:41;661.55;;;632.15;;
17197;SDS011;8715;51.010;6.812;2022-08-11T10:10:08;648.47;;;619.63;;
17197;SDS011;8715;51.010;6.812;2022-08-11T10:12:35;660.75;;;631.20;;
17197;SDS011;8715;51.010;6.812;2022-08-11T10:15:06;655.05;;;625.75;;
17197;SDS011;8715;51.010;6.812;2022-08-11T10:17:56;659.45;;;630.13;;
17197;SDS011;8715;51.010;6.812;2022-08-11T10:20:44;656.75;;;627.90;;
17197;SDS011;8715;51.010;6.812;2022-08-11T10:23:14;653.20;;;624.38;;
17197;SDS011;8715;51.010;6.812;2022-08-11T10:25:58;669.45;;;639.22;;
17197;SDS011;8715;51.010;6.812;2022-08-11T10:28:42;668.08;;;638.20;;
17197;SDS011;8715;51.010;6.812;2022-08-11T10:31:09;660.38;;;630.35;;
17197;SDS011;8715;51.010;6.812;2022-08-11T10:33:53;660.78;;;631.25;;
17197;SDS011;8715;51.010;6.812;2022-08-11T10:36:31;665.63;;;635.63;;
17197;SDS011;8715;51.010;6.812;2022-08-11T10:38:59;662.50;;;632.35;;
17197;SDS011;8715;51.010;6.812;2022-08-11T10:41:25;655.15;;;625.55;;
17197;SDS011;8715;51.010;6.812;2022-08-11T10:44:10;658.15;;;628.38;;
17197;SDS011;8715;51.010;6.812;2022-08-11T10:46:37;672.58;;;642.13;;
17197;SDS011;8715;51.010;6.812;2022-08-11T10:49:21;668.38;;;638.45;;
17197;SDS011;8715;51.010;6.812;2022-08-11T10:51:47;675.05;;;644.78;;
17197;SDS011;8715;51.010;6.812;2022-08-11T10:54:32;657.08;;;627.50;;
17197;SDS011;8715;51.010;6.812;2022-08-11T10:57:17;658.42;;;628.42;;
17197;SDS011;8715;51.010;6.812;2022-08-11T11:00:01;649.58;;;620.72;;
17197;SDS011;8715;51.010;6.812;2022-08-11T11:05:00;655.50;;;626.47;;
17197;SDS011;8715;51.010;6.812;2022-08-11T11:08:35;660.85;;;631.05;;
17197;SDS011;8715;51.010;6.812;2022-08-11T11:10:54;657.47;;;628.47;;
17197;SDS011;8715;51.010;6.812;2022-08-11T11:13:20;659.40;;;629.30;;
17197;SDS011;8715;51.010;6.812;2022-08-11T11:16:06;657.72;;;627.92;;
17197;SDS011;8715;51.010;6.812;2022-08-11T11:18:51;660.60;;;630.33;;
17197;SDS011;8715;51.010;6.812;2022-08-11T11:21:17;655.50;;;625.78;;
17197;SDS011;8715;51.010;6.812;2022-08-11T11:23:50;668.90;;;638.42;;
17197;SDS011;8715;51.010;6.812;2022-08-11T11:36:53;658.30;;;629.03;;
17197;SDS011;8715;51.010;6.812;2022-08-11T11:39:22;660.20;;;630.63;;
17197;SDS011;8715;51.010;6.812;2022-08-11T11:41:48;666.60;;;636.97;;
17197;SDS011;8715;51.010;6.812;2022-08-11T11:44:17;657.90;;;628.58;;
17197;SDS011;8715;51.010;6.812;2022-08-11T11:46:44;669.30;;;639.28;;
17197;SDS011;8715;51.010;6.812;2022-08-11T11:49:10;665.30;;;635.47;;
17197;SDS011;8715;51.010;6.812;2022-08-11T11:51:36;654.55;;;625.35;;
17197;SDS011;8715;51.010;6.812;2022-08-11T11:54:02;666.30;;;636.67;;
17197;SDS011;8715;51.010;6.812;2022-08-11T11:56:29;656.95;;;627.65;;
17197;SDS011;8715;51.010;6.812;2022-08-11T11:58:55;662.33;;;632.50;;
17197;SDS011;8715;51.010;6.812;2022-08-11T12:01:39;657.13;;;627.38;;
17197;SDS011;8715;51.010;6.812;2022-08-11T12:04:07;665.90;;;635.58;;
17197;SDS011;8715;51.010;6.812;2022-08-11T12:06:33;664.58;;;634.50;;
17197;SDS011;8715;51.010;6.812;2022-08-11T12:08:59;663.88;;;633.70;;
17197;SDS011;8715;51.010;6.812;2022-08-11T12:11:25;663.95;;;633.92;;
17197;SDS011;8715;51.010;6.812;2022-08-11T12:14:10;656.47;;;626.72;;
17197;SDS011;8715;51.010;6.812;2022-08-11T12:16:38;667.17;;;636.83;;
17197;SDS011;8715;51.010;6.812;2022-08-11T12:19:05;671.55;;;640.83;;
17197;SDS011;8715;51.010;6.812;2022-08-11T12:21:35;649.88;;;620.63;;
17197;SDS011;8715;51.010;6.812;2022-08-11T12:24:01;657.70;;;628.13;;
17197;SDS011;8715;51.010;6.812;2022-08-11T12:26:45;669.47;;;639.22;;
17197;SDS011;8715;51.010;6.812;2022-08-11T12:29:17;676.00;;;645.47;;
17197;SDS011;8715;51.010;6.812;2022-08-11T12:31:43;651.30;;;622.03;;
17197;SDS011;8715;51.010;6.812;2022-08-11T12:34:10;662.63;;;632.67;;
17197;SDS011;8715;51.010;6.812;2022-08-11T12:36:41;656.22;;;626.53;;
17197;SDS011;8715;51.010;6.812;2022-08-11T12:39:15;657.55;;;627.50;;
17197;SDS011;8715;51.010;6.812;2022-08-11T12:41:44;673.83;;;642.92;;
17197;SDS011;8715;51.010;6.812;2022-08-11T12:44:28;674.80;;;643.85;;
17197;SDS011;8715;51.010;6.812;2022-08-11T12:47:14;668.60;;;638.30;;
17197;SDS011;8715;51.010;6.812;2022-08-11T12:49:43;674.17;;;643.30;;
17197;SDS011;8715;51.010;6.812;2022-08-11T12:52:31;665.03;;;635.13;;
17197;SDS011;8715;51.010;6.812;2022-08-11T12:55:11;670.80;;;640.58;;
17197;SDS011;8715;51.010;6.812;2022-08-11T12:57:58;664.92;;;634.97;;
17197;SDS011;8715;51.010;6.812;2022-08-11T13:00:44;673.88;;;643.20;;
17197;SDS011;8715;51.010;6.812;2022-08-11T13:03:29;668.53;;;637.13;;
17197;SDS011;8715;51.010;6.812;2022-08-11T13:06:15;667.60;;;637.60;;
17197;SDS011;8715;51.010;6.812;2022-08-11T13:08:40;660.13;;;630.63;;
17197;SDS011;8715;51.010;6.812;2022-08-11T13:11:06;665.40;;;635.25;;
17197;SDS011;8715;51.010;6.812;2022-08-11T13:13:53;653.03;;;623.90;;
17197;SDS011;8715;51.010;6.812;2022-08-11T13:16:21;654.42;;;625.22;;
17197;SDS011;8715;51.010;6.812;2022-08-11T13:18:47;666.92;;;636.70;;
17197;SDS011;8715;51.010;6.812;2022-08-11T13:21:13;663.97;;;634.17;;
17197;SDS011;8715;51.010;6.812;2022-08-11T13:23:39;670.38;;;640.05;;
17197;SDS011;8715;51.010;6.812;2022-08-11T13:26:05;678.00;;;647.05;;
17197;SDS011;8715;51.010;6.812;2022-08-11T13:28:33;672.47;;;641.40;;
17197;SDS011;8715;51.010;6.812;2022-08-11T13:31:00;666.35;;;636.00;;
17197;SDS011;8715;51.010;6.812;2022-08-11T13:36:03;656.72;;;627.30;;
17197;SDS011;8715;51.010;6.812;2022-08-11T13:38:28;655.42;;;626.25;;
17197;SDS011;8715;51.010;6.812;2022-08-11T13:40:56;674.35;;;643.20;;
17197;SDS011;8715;51.010;6.812;2022-08-11T13:43:22;661.35;;;630.97;;
17197;SDS011;8715;51.010;6.812;2022-08-11T13:45:48;656.83;;;627.30;;
17197;SDS011;8715;51.010;6.812;2022-08-11T13:48:14;663.33;;;633.00;;
17197;SDS011;8715;51.010;6.812;2022-08-11T13:50:40;668.25;;;637.95;;
17197;SDS011;8715;51.010;6.812;2022-08-11T13:53:25;663.92;;;632.35;;
17197;SDS011;8715;51.010;6.812;2022-08-11T13:55:51;669.05;;;638.65;;
17197;SDS011;8715;51.010;6.812;2022-08-11T13:58:17;658.75;;;629.00;;
17197;SDS011;8715;51.010;6.812;2022-08-11T14:00:45;660.20;;;630.05;;
17197;SDS011;8715;51.010;6.812;2022-08-11T14:03:13;659.50;;;629.70;;
17197;SDS011;8715;51.010;6.812;2022-08-11T14:05:39;671.78;;;640.65;;
17197;SDS011;8715;51.010;6.812;2022-08-11T14:08:08;669.47;;;638.72;;
17197;SDS011;8715;51.010;6.812;2022-08-11T14:10:37;658.95;;;629.22;;
17197;SDS011;8715;51.010;6.812;2022-08-11T14:13:07;674.45;;;643.97;;
17197;SDS011;8715;51.010;6.812;2022-08-11T14:15:52;665.63;;;635.63;;
17197;SDS011;8715;51.010;6.812;2022-08-11T14:18:20;666.65;;;636.65;;
17197;SDS011;8715;51.010;6.812;2022-08-11T14:20:51;665.22;;;635.08;;
17197;SDS011;8715;51.010;6.812;2022-08-11T14:23:40;682.40;;;650.05;;
17197;SDS011;8715;51.010;6.812;2022-08-11T14:26:10;671.00;;;640.05;;
17197;SDS011;8715;51.010;6.812;2022-08-11T14:29:03;670.92;;;640.53;;
17197;SDS011;8715;51.010;6.812;2022-08-11T14:31:32;672.72;;;641.30;;
17197;SDS011;8715;51.010;6.812;2022-08-11T14:34:00;674.80;;;643.92;;
17197;SDS011;8715;51.010;6.812;2022-08-11T14:38:54;659.92;;;629.97;;
17197;SDS011;8715;51.010;6.812;2022-08-11T14:41:20;665.60;;;634.88;;
17197;SDS011;8715;51.010;6.812;2022-08-11T14:44:05;665.20;;;635.03;;
17197;SDS011;8715;51.010;6.812;2022-08-11T14:46:50;658.15;;;628.40;;
17197;SDS011;8715;51.010;6.812;2022-08-11T14:49:35;669.47;;;639.05;;
17197;SDS011;8715;51.010;6.812;2022-08-11T14:52:05;666.30;;;635.72;;
17197;SDS011;8715;51.010;6.812;2022-08-11T14:54:33;669.55;;;638.97;;
17197;SDS011;8715;51.010;6.812;2022-08-11T14:57:17;662.85;;;633.00;;
17197;SDS011;8715;51.010;6.812;2022-08-11T14:59:45;663.55;;;633.58;;
17197;SDS011;8715;51.010;6.812;2022-08-11T15:02:14;670.47;;;640.25;;
17197;SDS011;8715;51.010;6.812;2022-08-11T15:04:59;658.17;;;628.20;;
17197;SDS011;8715;51.010;6.812;2022-08-11T15:07:26;666.22;;;635.97;;
17197;SDS011;8715;51.010;6.812;2022-08-11T15:09:56;658.13;;;628.30;;
17197;SDS011;8715;51.010;6.812;2022-08-11T15:12:23;661.80;;;632.00;;
17197;SDS011;8715;51.010;6.812;2022-08-11T15:14:48;654.72;;;625.35;;
17197;SDS011;8715;51.010;6.812;2022-08-11T15:17:33;668.78;;;639.05;;
17197;SDS011;8715;51.010;6.812;2022-08-11T15:19:59;665.35;;;635.58;;
17197;SDS011;8715;51.010;6.812;2022-08-11T15:22:45;662.50;;;632.10;;
17197;SDS011;8715;51.010;6.812;2022-08-11T15:25:30;674.45;;;643.53;;
17197;SDS011;8715;51.010;6.812;2022-08-11T15:27:58;664.13;;;634.20;;
17197;SDS011;8715;51.010;6.812;2022-08-11T15:30:43;666.25;;;636.22;;
17197;SDS011;8715;51.010;6.812;2022-08-11T15:33:27;660.47;;;630.25;;
17197;SDS011;8715;51.010;6.812;2022-08-11T15:36:11;660.33;;;630.45;;
17197;SDS011;8715;51.010;6.812;2022-08-11T15:38:57;677.38;;;646.72;;
17197;SDS011;8715;51.010;6.812;2022-08-11T15:41:29;670.50;;;639.90;;
17197;SDS011;8715;51.010;6.812;2022-08-11T15:44:18;665.10;;;634.30;;
17197;SDS011;8715;51.010;6.812;2022-08-11T15:47:03;661.72;;;631.58;;
17197;SDS011;8715;51.010;6.812;2022-08-11T15:49:49;665.13;;;635.03;;
17197;SDS011;8715;51.010;6.812;2022-08-11T15:52:17;661.97;;;631.88;;
17197;SDS011;8715;51.010;6.812;2022-08-11T15:54:45;667.13;;;636.88;;
17197;SDS011;8715;51.010;6.812;2022-08-11T15:57:11;673.53;;;642.88;;
17197;SDS011;8715;51.010;6.812;2022-08-11T16:00:01;666.72;;;636.90;;
17197;SDS011;8715;51.010;6.812;2022-08-11T16:05:18;655.13;;;625.97;;
17197;SDS011;8715;51.010;6.812;2022-08-11T16:07:44;661.97;;;631.92;;
17197;SDS011;8715;51.010;6.812;2022-08-11T16:10:13;665.33;;;635.05;;
17197;SDS011;8715;51.010;6.812;2022-08-11T16:13:00;669.15;;;638.42;;
17197;SDS011;8715;51.010;6.812;2022-08-11T16:15:31;676.13;;;645.55;;
17197;SDS011;8715;51.010;6.812;2022-08-11T16:18:18;672.67;;;641.72;;
17197;SDS011;8715;51.010;6.812;2022-08-11T16:20:44;662.22;;;632.30;;
17197;SDS011;8715;51.010;6.812;2022-08-11T16:23:11;655.15;;;625.25;;
17197;SDS011;8715;51.010;6.812;2022-08-11T16:25:39;669.28;;;638.72;;
17197;SDS011;8715;51.010;6.812;2022-08-11T16:28:05;663.67;;;634.08;;
17197;SDS011;8715;51.010;6.812;2022-08-11T16:30:35;661.75;;;631.85;;
17197;SDS011;8715;51.010;6.812;2022-08-11T16:33:02;660.45;;;631.05;;
17197;SDS011;8715;51.010;6.812;2022-08-11T16:35:29;663.85;;;634.22;;
17197;SDS011;8715;51.010;6.812;2022-08-11T16:38:15;659.00;;;629.38;;
17197;SDS011;8715;51.010;6.812;2022-08-11T16:41:00;653.28;;;624.03;;
17197;SDS011;8715;51.010;6.812;2022-08-11T16:43:28;666.00;;;636.13;;
17197;SDS011;8715;51.010;6.812;2022-08-11T16:46:14;652.00;;;622.53;;
17197;SDS011;8715;51.010;6.812;2022-08-11T16:49:00;658.40;;;628.67;;
17197;SDS011;8715;51.010;6.812;2022-08-11T16:51:27;659.65;;;629.95;;
17197;SDS011;8715;51.010;6.812;2022-08-11T16:53:53;656.50;;;626.87;;
17197;SDS011;8715;51.010;6.812;2022-08-11T16:56:20;675.95;;;645.20;;
17197;SDS011;8715;51.010;6.812;2022-08-11T16:58:55;659.45;;;629.90;;
17197;SDS011;8715;51.010;6.812;2022-08-11T17:01:40;655.17;;;625.55;;
17197;SDS011;8715;51.010;6.812;2022-08-11T17:04:27;667.58;;;637.28;;
17197;SDS011;8715;51.010;6.812;2022-08-11T17:07:14;659.35;;;629.85;;
17197;SDS011;8715;51.010;6.812;2022-08-11T17:09:59;664.30;;;634.30;;
17197;SDS011;8715;51.010;6.812;2022-08-11T17:12:47;657.38;;;627.85;;
17197;SDS011;8715;51.010;6.812;2022-08-11T17:15:32;662.35;;;632.88;;
17197;SDS011;8715;51.010;6.812;2022-08-11T17:18:18;677.03;;;646.65;;
17197;SDS011;8715;51.010;6.812;2022-08-11T17:21:02;669.20;;;637.35;;
17197;SDS011;8715;51.010;6.812;2022-08-11T17:23:29;657.60;;;628.30;;
17197;SDS011;8715;51.010;6.812;2022-08-11T17:29:20;673.17;;;642.67;;
17197;SDS011;8715;51.010;6.812;2022-08-11T17:31:48;662.30;;;632.10;;
17197;SDS011;8715;51.010;6.812;2022-08-11T17:34:33;665.38;;;635.20;;
17197;SDS011;8715;51.010;6.812;2022-08-11T17:37:18;666.00;;;635.65;;
17197;SDS011;8715;51.010;6.812;2022-08-11T17:39:44;662.53;;;632.67;;
17197;SDS011;8715;51.010;6.812;2022-08-11T17:42:10;654.65;;;624.65;;
17197;SDS011;8715;51.010;6.812;2022-08-11T17:44:54;649.08;;;619.88;;
17197;SDS011;8715;51.010;6.812;2022-08-11T17:47:39;659.20;;;629.38;;
17197;SDS011;8715;51.010;6.812;2022-08-11T17:50:23;651.13;;;621.85;;
17197;SDS011;8715;51.010;6.812;2022-08-11T17:52:49;662.05;;;631.97;;
17197;SDS011;8715;51.010;6.812;2022-08-11T17:55:34;663.92;;;633.90;;
17197;SDS011;8715;51.010;6.812;2022-08-11T17:58:19;652.90;;;623.88;;
17197;SDS011;8715;51.010;6.812;2022-08-11T18:01:04;655.63;;;625.97;;
17197;SDS011;8715;51.010;6.812;2022-08-11T18:03:30;648.00;;;619.45;;
17197;SDS011;8715;51.010;6.812;2022-08-11T18:06:00;667.03;;;637.22;;
17197;SDS011;8715;51.010;6.812;2022-08-11T18:08:27;660.30;;;631.28;;
17197;SDS011;8715;51.010;6.812;2022-08-11T18:11:12;653.47;;;623.83;;
17197;SDS011;8715;51.010;6.812;2022-08-11T18:13:57;654.70;;;624.08;;
17197;SDS011;8715;51.010;6.812;2022-08-11T18:16:42;654.95;;;623.88;;
17197;SDS011;8715;51.010;6.812;2022-08-11T18:19:26;665.45;;;635.65;;
17197;SDS011;8715;51.010;6.812;2022-08-11T18:22:20;660.47;;;631.35;;
17197;SDS011;8715;51.010;6.812;2022-08-11T18:25:08;658.75;;;629.88;;
17197;SDS011;8715;51.010;6.812;2022-08-11T18:27:55;654.92;;;625.70;;